Arbúcies





Hora UTC 20:15
Temperatura 6.1 ºC
Humitat 69.1 %
Pressió 1006.0 hPa
Pluja 0.1 mm
Velocitat vent 3.8 km/h
Direcció vent NE
Radiació solar 0.0 W/m²

Dades diàries 2019-11-15



Hora UTC (hivern +1h; estiu +2h)
Temperatura (ºC) Humitat (%) Pressió (hPa) Velocitat vent (km/h) Precipitació (mm) Radiació solar (W/m²)
Hora UTC Aire Humitat Pressió Vel. Dir. Vel. Max Dir. Intent. màx 5 min. Rad. Sol.
00:05 1.1 96.9 1003.0 6.0 SW 8.5 SW 0.0 0.0
00:10 1.1 96.9 1003.0 6.2 SW 8.8 SSW 0.0 0.0
00:15 1.1 96.9 1003.0 6.3 SW 8.5 SW 0.0 0.0
00:20 1.2 97.0 1003.0 5.7 SSW 10.2 SW 0.0 0.0
00:25 1.4 97.1 1003.0 6.4 SW 9.9 SW 0.0 0.0
00:30 1.3 97.0 1003.0 5.7 SW 8.8 SW 0.0 0.0
00:35 1.2 96.9 1003.0 8.8 SW 15.2 SW 0.0 0.0
00:40 1.3 97.0 1003.0 8.8 SW 12.7 WSW 0.0 0.0
00:45 1.2 97.0 1003.0 7.7 SW 12.7 WSW 0.0 0.0
00:50 1.4 97.1 1003.0 7.6 SW 13.4 SW 0.0 0.0
00:55 1.3 97.0 1003.0 6.2 SW 10.6 SW 0.0 0.0
01:00 1.3 96.9 1003.0 6.6 SW 10.6 SSW 0.0 0.0
01:05 1.4 97.0 1003.0 9.0 SW 12.3 SW 0.0 0.0
01:10 1.5 97.0 1003.0 7.9 SW 12.0 SW 0.0 0.0
01:15 1.4 97.0 1003.0 6.4 SW 8.8 SW 0.0 0.0
01:20 1.2 96.8 1003.0 5.3 SW 8.5 SW 0.0 0.0
01:25 1.0 96.8 1003.0 5.2 SW 8.1 SW 0.0 0.0
01:30 1.1 96.9 1003.0 5.1 SW 9.5 SW 0.1 0.0
01:35 1.1 97.0 1003.0 4.9 SW 8.1 SSW 0.0 0.0
01:40 1.2 97.1 1003.0 4.6 WSW 7.8 SW 0.0 0.0
01:45 1.2 97.0 1003.0 7.1 SW 9.9 SW 0.0 0.0
01:50 1.2 97.0 1003.0 7.6 SW 13.1 SW 0.0 0.0
01:55 1.5 97.2 1003.0 7.7 SW 12.7 WSW 0.0 0.0
02:00 1.6 97.1 1003.0 7.6 SW 14.1 SSW 0.0 0.0
02:05 1.7 97.0 1003.0 9.7 SW 14.5 SW 0.0 0.0
02:10 1.7 96.9 1003.0 7.5 SW 12.0 WSW 0.0 0.0
02:15 1.7 96.8 1003.0 5.6 WSW 10.6 SW 0.0 0.0
02:20 1.7 96.8 1003.0 5.6 SW 9.5 SW 0.0 0.0
02:25 1.8 96.7 1003.0 4.3 SSW 8.8 SSW 0.0 0.0
02:30 1.8 96.7 1003.0 7.8 SW 11.6 SW 0.0 0.0
02:35 1.6 96.5 1003.0 6.8 SW 9.2 SW 0.0 0.0
02:40 1.4 96.4 1003.0 8.2 SSW 10.6 SSW 0.0 0.0
02:45 1.3 96.6 1003.0 9.5 SSW 12.0 SSW 0.0 0.0
02:50 1.4 96.8 1003.0 4.3 SW 9.5 SW 0.0 0.0
02:55 1.5 96.8 1003.0 3.7 SSW 8.8 SSW 0.0 0.0
03:00 1.4 96.8 1004.0 5.2 SW 7.4 SW 0.0 0.0
03:05 1.3 96.7 1003.0 6.6 SW 9.5 SSW 0.0 0.0
03:10 1.4 96.8 1003.0 7.6 SW 10.2 SSW 0.0 0.0
03:15 1.3 96.8 1003.0 7.0 SW 9.5 SW 0.0 0.0
03:20 1.3 96.8 1003.0 7.7 SW 10.9 WSW 0.0 0.0
03:25 1.5 96.9 1003.0 7.0 SW 10.6 SSW 0.0 0.0
03:30 1.5 96.9 1003.0 8.1 SW 11.6 SSW 0.0 0.0
03:35 1.4 96.8 1003.0 3.5 WSW 6.4 SW 0.0 0.0
03:40 1.3 96.8 1003.0 3.9 SW 6.7 WSW 0.0 0.0
03:45 1.4 96.9 1003.0 6.5 SSW 10.9 SSW 0.0 0.0
03:50 1.6 97.0 1003.0 8.4 SSW 12.0 SSW 0.0 0.0
03:55 1.5 96.9 1003.0 7.6 SW 11.6 SW 0.0 0.0
04:00 1.5 96.9 1004.0 5.7 SW 9.5 SSW 0.0 0.0
04:05 1.5 96.8 1003.0 5.5 SW 7.8 SW 0.0 0.0
04:10 1.4 96.7 1003.0 5.2 SW 7.8 SSW 0.0 0.0
04:15 1.3 96.8 1003.0 6.6 SW 10.2 SW 0.0 0.0
04:20 1.5 96.9 1003.0 9.3 SW 14.1 WSW 0.0 0.0
04:25 1.8 97.0 1003.0 10.3 SW 16.9 SSW 0.0 0.0
04:30 1.9 97.0 1004.0 10.2 SW 14.8 SW 0.0 0.0
04:35 1.8 96.8 1003.0 8.3 SW 13.1 SW 0.0 0.0
04:40 1.8 96.7 1003.0 8.8 SW 15.5 WSW 0.0 0.0
04:45 1.7 96.7 1003.0 8.3 SW 13.1 WSW 0.0 0.0
04:50 1.8 96.8 1003.0 10.1 SW 16.6 SW 0.0 0.0
04:55 1.9 96.8 1003.0 7.6 SW 12.0 SW 0.0 0.0
05:00 1.7 96.5 1004.0 6.1 SW 8.1 SW 0.0 0.0
05:05 1.5 96.5 1003.0 5.6 WSW 8.5 SW 0.0 0.0
05:10 1.4 96.5 1003.0 5.2 SW 8.8 SW 0.0 0.0
05:15 1.6 96.8 1003.0 7.7 SW 14.1 SSW 0.0 0.0
05:20 1.8 96.9 1003.0 7.6 SW 10.9 WSW 0.0 0.0
05:25 1.7 96.7 1003.0 6.5 SW 11.3 SW 0.0 0.0
05:30 1.8 96.7 1004.0 8.7 SW 16.9 SW 0.0 0.0
05:35 1.9 96.8 1003.0 9.1 SW 13.4 WSW 0.0 0.0
05:40 2.0 96.6 1003.0 6.9 SW 11.6 SW 0.0 0.0
05:45 2.0 96.6 1003.0 8.1 SW 14.8 SW 0.0 0.0
05:50 2.0 96.5 1004.0 10.2 SW 16.6 SW 0.0 0.0
05:55 2.1 96.4 1003.0 9.6 SW 16.2 SW 0.0 0.0
06:00 2.1 96.3 1004.0 7.7 SW 15.2 SW 0.0 0.0
06:05 2.0 96.1 1003.0 7.8 SW 11.3 SW 0.0 0.0
06:10 2.0 96.2 1003.0 8.3 SW 14.1 SW 0.0 0.0
06:15 1.9 96.2 1003.0 8.2 SW 12.3 WSW 0.0 0.0
06:20 1.8 96.3 1003.0 8.8 SW 13.8 WSW 0.0 0.0
06:25 1.9 96.4 1003.0 9.5 SW 14.1 SW 0.0 0.0
06:30 1.9 96.3 1004.0 6.2 SW 13.1 SW 0.0 0.0
06:35 1.8 96.2 1003.0 6.6 SW 11.6 SSW 0.0 0.2
06:40 2.0 96.5 1003.0 10.1 SW 15.2 SW 0.0 1.6
06:45 2.0 96.3 1003.0 6.8 SW 12.0 SW 0.0 3.1
06:50 1.9 96.1 1003.0 5.3 SW 8.1 SW 0.0 5.2
06:55 1.9 96.2 1003.0 6.6 SW 12.0 WSW 0.0 8.3
07:00 2.0 96.4 1004.0 8.0 SW 14.1 SW 0.0 11.9
07:05 2.1 96.3 1004.0 7.6 SW 12.0 SW 0.0 15.0
07:10 2.1 96.2 1004.0 8.7 SW 13.4 SW 0.0 18.1
07:15 2.1 96.3 1004.0 8.4 SW 12.7 SSW 0.0 20.8
07:20 2.2 96.2 1004.0 6.4 SW 9.5 W 0.0 23.6
07:25 2.3 96.3 1004.0 7.1 SW 10.6 WSW 0.0 25.8
07:30 2.5 96.4 1004.0 10.1 SW 16.2 SW 0.0 29.8
07:35 2.7 96.3 1004.0 9.0 SW 15.2 SW 0.0 33.1
07:40 2.8 96.0 1004.0 10.3 SW 19.1 WSW 0.0 31.8
07:45 2.9 95.8 1004.0 9.5 SW 15.5 WSW 0.0 31.4
07:50 3.1 95.7 1004.0 9.7 SW 13.4 SSW 0.0 33.4
07:55 3.2 95.4 1004.0 10.4 SW 14.5 SSW 0.0 34.9
08:00 3.3 95.1 1004.0 10.0 SW 15.5 SW 0.0 37.2
08:05 3.5 94.8 1004.0 9.6 SW 14.5 SW 0.0 38.7
08:10 3.6 94.6 1004.0 9.3 SW 13.4 SSW 0.0 41.4
08:15 3.8 94.5 1004.0 5.7 SW 8.1 SW 0.0 45.9
08:20 3.9 94.6 1004.0 6.1 SW 9.5 SSW 0.0 53.3
08:25 3.9 94.7 1004.0 6.6 SW 9.9 SW 0.0 52.0
08:30 4.0 94.7 1005.0 6.5 SW 8.1 SW 0.0 55.8
08:35 4.2 94.7 1004.0 6.7 SW 8.8 SW 0.0 65.0
08:40 4.3 94.5 1004.0 6.3 SW 9.5 SSW 0.0 70.0
08:45 4.4 94.2 1004.0 6.4 SSW 8.5 SW 0.0 82.5
08:50 4.5 94.0 1004.0 5.9 SSW 9.9 SW 0.0 88.2
08:55 4.6 93.9 1004.0 6.5 SSW 10.2 SW 0.0 91.5
09:00 4.7 93.8 1005.0 4.3 SSW 6.0 S 0.0 89.3
09:05 4.9 93.9 1004.0 4.5 SW 6.4 SW 0.0 84.5
09:10 5.0 93.8 1004.0 5.9 SSW 8.5 SSW 0.0 93.1
09:15 5.1 93.5 1004.0 6.6 SSW 10.2 SSW 0.0 107.6
09:20 5.2 93.3 1004.0 7.2 SW 12.3 SW 0.0 114.4
09:25 5.3 93.2 1004.0 5.0 SW 10.6 WSW 0.0 115.1
09:30 5.5 93.2 1004.0 5.0 SSW 7.8 SSW 0.0 110.1
09:35 5.6 93.0 1004.0 5.2 SSW 7.1 SSW 0.0 114.5
09:40 5.8 93.0 1004.0 3.5 SW 5.6 SSW 0.0 129.9
09:45 5.9 92.6 1004.0 4.6 SW 6.7 SW 0.0 137.2
09:50 6.0 92.3 1004.0 3.3 SSW 6.0 WSW 0.0 150.6
09:55 6.1 92.2 1004.0 3.9 SSW 7.1 SSW 0.0 164.2
10:00 6.2 91.9 1004.0 6.1 SW 10.2 SW 0.0 173.1
10:05 6.4 91.5 1004.0 6.2 SW 9.2 SW 0.0 209.2
10:10 6.6 90.7 1004.0 6.3 SW 12.7 SW 0.0 232.8
10:15 6.9 89.9 1004.0 5.2 SW 9.2 WSW 0.0 233.9
10:20 7.0 87.9 1004.0 4.4 SW 7.8 SSW 0.0 240.9
10:25 7.2 86.1 1004.0 4.7 SW 8.8 SW 0.0 272.8
10:30 7.5 84.2 1004.0 3.8 SW 7.8 W 0.0 294.3
10:35 7.7 81.8 1004.0 5.0 WSW 9.2 WSW 0.0 301.3
10:40 7.9 80.0 1004.0 4.7 SW 8.5 WSW 0.0 330.8
10:45 8.1 77.6 1003.0 4.5 SW 8.1 SW 0.0 333.4
10:50 8.5 77.1 1003.0 4.2 WSW 7.8 NW 0.0 425.0
10:55 8.8 75.4 1003.0 2.6 SSW 4.9 SW 0.0 351.5
11:00 8.8 73.5 1004.0 2.0 S 6.4 SSW 0.0 366.5
11:05 8.7 72.9 1003.0 3.2 SSE 5.6 S 0.0 192.6
11:10 8.4 74.6 1003.0 2.7 SSE 4.2 SSE 0.0 184.0
11:15 8.5 75.8 1003.0 1.1 S 2.8 SSE 0.0 192.5
11:20 8.7 76.7 1003.0 1.0 E 3.5 SE 0.0 245.6
11:25 8.5 75.4 1003.0 2.9 ENE 4.6 NE 0.0 188.0
11:30 8.4 76.0 1003.0 6.4 ENE 10.2 ENE 0.0 195.4
11:35 8.1 77.0 1003.0 5.6 E 8.8 E 0.0 220.5
11:40 8.0 77.7 1003.0 5.6 ENE 8.5 ENE 0.0 202.0
11:45 8.1 78.1 1003.0 7.9 ENE 10.6 ENE 0.0 246.5
11:50 8.4 78.2 1003.0 5.3 ENE 9.2 E 0.0 297.8
11:55 8.4 78.0 1003.0 6.5 ENE 9.9 ENE 0.0 275.2
12:00 8.3 78.9 1003.0 6.7 ENE 9.2 ENE 0.0 289.6
12:05 8.4 78.3 1003.0 6.0 ENE 11.3 NE 0.0 319.4
12:10 8.4 78.1 1003.0 5.7 ENE 10.2 ENE 0.0 346.4
12:15 8.8 78.2 1003.0 5.4 NE 10.6 ENE 0.0 401.3
12:20 9.0 76.5 1003.0 6.4 ENE 9.9 ENE 0.0 447.8
12:25 8.7 76.7 1003.0 6.4 ENE 10.6 ENE 0.0 329.0
12:30 8.7 76.5 1003.0 5.2 E 10.2 ENE 0.0 247.8
12:35 8.9 76.9 1002.0 5.2 ENE 10.6 NE 0.0 250.2
12:40 9.2 76.3 1003.0 4.1 NE 8.1 NE 0.0 367.6
12:45 9.4 73.3 1003.0 5.5 ENE 8.5 ENE 0.0 312.5
12:50 9.4 72.1 1002.0 6.9 ENE 12.3 ENE 0.0 342.7
12:55 9.5 71.9 1003.0 6.1 ENE 12.7 NE 0.0 302.6
13:00 9.7 68.4 1002.0 2.9 ENE 7.8 NE 0.0 439.9
13:05 10.3 67.2 1002.0 4.0 ENE 7.4 ENE 0.0 543.0
13:10 10.5 66.8 1002.0 4.9 NE 7.8 NNE 0.0 397.8
13:15 10.3 65.5 1002.0 6.2 ENE 10.9 ENE 0.0 316.4
13:20 10.2 65.5 1002.0 4.8 NE 12.0 ENE 0.0 364.2
13:25 10.4 61.7 1003.0 3.9 E 9.9 E 0.0 435.4
13:30 11.0 60.0 1002.0 1.8 SSE 4.2 ESE 0.0 430.8
13:35 11.0 57.0 1002.0 6.4 ENE 10.6 ENE 0.0 386.1
13:40 10.4 59.5 1002.0 6.5 ENE 10.9 NE 0.0 398.6
13:45 10.7 60.2 1002.0 8.4 ENE 13.1 NE 0.0 392.2
13:50 10.6 59.3 1002.0 3.3 ESE 7.1 E 0.0 363.6
13:55 11.0 56.9 1002.0 1.7 S 5.6 SE 0.0 366.2
14:00 11.1 56.2 1002.0 3.6 ENE 10.6 SE 0.0 359.0
14:05 11.1 50.2 1002.0 4.5 SSW 11.3 SSW 0.0 325.9
14:10 11.2 45.8 1002.0 4.3 SSW 12.7 SSW 0.0 325.8
14:15 10.9 44.5 1002.0 4.4 S 13.1 SSW 0.0 308.3
14:20 11.0 45.0 1002.0 2.4 ESE 4.9 S 0.0 291.5
14:25 10.9 44.6 1002.0 2.8 SSE 6.4 SW 0.0 278.0
14:30 10.5 46.6 1002.0 3.9 SSE 7.8 SSE 0.0 265.0
14:35 10.1 46.0 1002.0 3.0 SSE 8.5 SSE 0.0 251.4
14:40 10.1 51.0 1002.0 2.1 S 3.9 ESE 0.0 236.4
14:45 10.1 59.2 1002.0 3.7 SW 7.1 SW 0.0 221.7
14:50 10.1 61.2 1002.0 5.1 SW 8.1 SW 0.0 207.1
14:55 10.0 60.9 1003.0 5.9 SW 8.8 SW 0.0 195.4
15:00 9.5 60.1 1002.0 5.2 SW 8.8 SW 0.0 183.0
15:05 9.1 61.8 1002.0 5.7 SSW 9.9 SW 0.0 169.6
15:10 8.7 63.0 1002.0 5.6 SSW 7.4 SSW 0.0 151.9
15:15 8.4 64.0 1002.0 5.9 SSW 8.5 SSW 0.0 99.7
15:20 7.5 68.2 1002.0 6.9 SW 9.2 SW 0.0 33.9
15:25 6.9 72.0 1003.0 4.3 WSW 7.8 SSW 0.0 32.7
15:30 6.6 73.1 1002.0 6.2 SW 8.5 SSW 0.0 33.3
15:35 6.4 74.6 1002.0 5.4 SW 10.9 WSW 0.0 32.6
15:40 6.1 76.0 1002.0 4.9 SW 7.4 SW 0.0 31.9
15:45 5.9 77.0 1002.0 5.3 SW 8.8 SW 0.0 32.4
15:50 5.8 76.5 1002.0 6.2 SW 8.1 SW 0.0 31.1
15:55 5.6 77.9 1003.0 7.0 SW 10.2 SW 0.0 30.8
16:00 5.5 78.4 1002.0 5.3 SSW 7.8 SSW 0.0 30.7
16:05 5.5 79.8 1002.0 4.1 WSW 6.7 SSW 0.0 30.7
16:10 5.3 80.9 1002.0 4.3 SW 7.1 SSW 0.0 30.3
16:15 5.2 81.2 1002.0 5.8 SW 7.8 SW 0.0 24.3
16:20 5.1 81.1 1002.0 5.8 SW 9.5 SSW 0.0 15.9
16:25 5.1 80.9 1003.0 6.3 SW 7.8 SW 0.0 7.3
16:30 4.9 81.9 1002.0 5.2 SW 8.5 SW 0.0 2.4
16:35 4.6 82.7 1002.0 6.8 SW 10.2 S 0.0 0.2
16:40 4.5 83.1 1003.0 5.9 SW 8.1 SW 0.0 0.0
16:45 4.2 83.8 1003.0 7.7 SW 10.2 SW 0.0 0.0
16:50 4.0 84.7 1003.0 6.0 SW 8.8 SW 0.0 0.0
16:55 3.8 85.1 1003.0 6.1 SW 8.8 SW 0.0 0.0
17:00 3.7 85.5 1003.0 1.4 WSW 5.3 SW 0.0 0.0
17:05 3.5 86.2 1003.0 1.2 W 3.2 W 0.0 0.0
17:10 3.4 86.7 1003.0 2.8 SW 4.2 SW 0.0 0.0
17:15 3.2 87.4 1003.0 4.4 SW 7.8 SW 0.0 0.0
17:20 3.1 88.1 1004.0 4.5 SW 7.1 SW 0.0 0.0
17:25 3.0 88.7 1004.0 2.6 SW 6.0 SSW 0.0 0.0
17:30 2.9 89.3 1004.0 4.2 SSW 5.3 SW 0.0 0.0
17:35 2.9 90.0 1004.0 3.6 SW 6.0 SW 0.0 0.0
17:40 2.8 90.4 1004.0 5.3 SW 10.2 SSW 0.0 0.0
17:45 2.9 90.9 1004.0 6.4 SW 9.2 SSW 0.0 0.0
17:50 3.0 91.1 1004.0 6.6 SW 9.9 SSW 0.0 0.0
17:55 3.0 90.5 1005.0 4.4 WSW 7.8 SW 0.0 0.0
18:00 2.8 90.5 1004.0 4.8 SW 7.8 SW 0.0 0.0
18:05 2.7 90.8 1005.0 4.7 SW 7.1 SW 0.0 0.0
18:10 2.7 91.3 1005.0 3.8 WSW 6.0 SW 0.0 0.0
18:15 2.7 91.4 1005.0 4.7 SW 8.5 SW 0.0 0.0
18:20 2.8 91.8 1005.0 5.3 WSW 8.1 SW 0.0 0.0
18:25 2.7 91.9 1005.0 6.6 SW 10.6 WSW 0.0 0.0
18:30 2.8 92.1 1005.0 5.8 WSW 8.8 SW 0.0 0.0
18:35 2.9 92.3 1005.0 4.4 W 7.8 SW 0.0 0.0
18:40 3.1 92.2 1005.0 3.5 W 7.4 WSW 0.0 0.0
18:45 3.5 92.1 1005.0 2.1 SW 8.1 WSW 0.0 0.0
18:50 3.9 91.4 1005.0 5.0 SW 10.9 SW 0.0 0.0
18:55 4.8 87.6 1005.0 2.5 SW 8.1 SSW 0.0 0.0
19:00 5.0 82.9 1005.0 3.9 SSW 18.0 SW 0.0 0.0
19:05 5.1 79.8 1005.0 5.6 SW 15.5 SSW 0.0 0.0
19:10 5.3 78.2 1005.0 6.6 SW 13.1 SSW 0.0 0.0
19:15 5.6 75.3 1005.0 6.0 SW 11.6 SW 0.0 0.0
19:20 5.7 73.8 1005.0 5.6 WSW 14.1 SW 0.0 0.0
19:25 5.7 73.5 1005.0 6.4 SW 12.7 SW 0.0 0.0
19:30 6.0 71.3 1005.0 7.6 SW 16.6 SSW 0.0 0.0
19:35 6.0 71.1 1005.0 7.0 SSW 15.5 SW 0.0 0.0
19:40 6.1 70.2 1005.0 9.6 SW 19.1 SW 0.0 0.0
19:45 6.1 69.4 1005.0 7.8 SW 24.7 SSW 0.0 0.0
19:50 6.2 69.3 1005.0 10.1 SW 21.2 SSW 0.0 0.0
19:55 6.4 67.8 1006.0 11.1 SW 20.5 WSW 0.0 0.0
20:00 6.3 68.2 1005.0 8.0 SW 17.6 SW 0.0 0.0
20:05 6.3 68.5 1006.0 8.2 SW 19.8 S 0.0 0.0
20:10 6.1 69.6 1006.0 2.9 NW 10.2 WSW 0.0 0.0
20:15 6.1 69.1 1006.0 3.8 NE 7.4 N 0.0 0.0
Màxima 11.2 97.2 1006.0 11.1 SW 24.7 SSW 0.1 543.0
Mínima 1.0 44.5 1002.0
Total 0.1